Time;durP1;ratioP1;P1;durP2;ratioP2;P2;SDS_P1;SDS_P2;PMS_P1;PMS_P2;Temp;Humidity;BMP_temperature;BMP_pressure;BME280_temperature;BME280_humidity;BME280_pressure;Samples;Min_cycle;Max_cycle;Signal;HPM_P1;HPM_P2
2023/11/13 00:01:25;;;;;;;21.60;16.35;;;5.90;99.90;;;;;;7395675;19;20022;-71
2023/11/13 00:03:54;;;;;;;19.55;14.90;;;6.00;99.90;;;;;;7394814;19;20088;-72
2023/11/13 00:06:25;;;;;;;19.05;15.05;;;6.00;99.90;;;;;;7394105;19;20010;-72
2023/11/13 00:08:55;;;;;;;21.60;16.17;;;6.00;99.90;;;;;;7392788;19;20018;-72
2023/11/13 00:11:27;;;;;;;20.17;15.00;;;6.00;99.90;;;;;;7394985;19;20415;-72
2023/11/13 00:13:58;;;;;;;19.75;14.68;;;6.00;99.90;;;;;;7394083;19;20020;-71
2023/11/13 00:16:28;;;;;;;18.77;14.45;;;6.00;99.90;;;;;;7395362;19;20376;-70
2023/11/13 00:18:58;;;;;;;20.38;15.70;;;6.00;99.90;;;;;;7395475;19;20415;-72
2023/11/13 00:21:28;;;;;;;20.50;15.55;;;6.10;99.90;;;;;;7393856;19;20407;-70
2023/11/13 00:23:59;;;;;;;20.75;14.93;;;6.10;99.90;;;;;;7394072;19;20030;-71
2023/11/13 00:26:31;;;;;;;19.55;14.75;;;6.10;99.90;;;;;;7392121;19;20014;-70
2023/11/13 00:29:02;;;;;;;22.05;15.10;;;6.10;99.90;;;;;;7395571;19;20082;-71
2023/11/13 00:31:32;;;;;;;21.77;15.32;;;6.20;99.90;;;;;;7393822;19;20090;-71
2023/11/13 00:34:02;;;;;;;21.10;15.13;;;6.20;99.90;;;;;;7392146;19;20022;-70
2023/11/13 00:36:32;;;;;;;20.08;15.68;;;6.20;99.90;;;;;;7393566;19;20114;-71
2023/11/13 00:39:03;;;;;;;17.85;14.25;;;6.20;99.90;;;;;;7394423;19;20606;-71
2023/11/13 00:41:37;;;;;;;22.27;15.45;;;6.20;99.90;;;;;;7394525;19;20043;-71
2023/11/13 00:44:08;;;;;;;19.55;14.90;;;6.20;99.90;;;;;;7391944;19;20090;-71
2023/11/13 00:46:38;;;;;;;22.98;16.35;;;6.20;99.90;;;;;;7390915;19;20022;-70
2023/11/13 00:49:08;;;;;;;21.55;15.57;;;6.20;99.90;;;;;;7393081;19;20014;-71
2023/11/13 00:51:38;;;;;;;22.73;16.40;;;6.20;99.90;;;;;;7394793;19;20038;-71
2023/11/13 00:54:08;;;;;;;21.33;16.20;;;6.20;99.90;;;;;;7391219;19;20022;-70
2023/11/13 00:56:41;;;;;;;21.17;15.43;;;6.20;99.90;;;;;;7392896;19;20069;-70
2023/11/13 00:59:11;;;;;;;20.65;15.15;;;6.20;99.90;;;;;;7393205;19;20360;-70
2023/11/13 01:01:41;;;;;;;21.45;15.80;;;6.20;99.90;;;;;;7394381;19;20019;-71
2023/11/13 01:04:11;;;;;;;21.08;15.40;;;6.20;99.90;;;;;;7392966;19;20463;-71
2023/11/13 01:06:41;;;;;;;21.45;15.45;;;6.30;99.90;;;;;;7398301;19;20011;-70
2023/11/13 01:09:11;;;;;;;23.63;15.43;;;6.30;99.90;;;;;;7401303;19;20027;-70
2023/11/13 01:11:45;;;;;;;19.73;15.40;;;6.30;99.90;;;;;;7402265;19;20010;-70
2023/11/13 01:14:15;;;;;;;20.25;14.57;;;6.30;99.90;;;;;;7399469;19;20042;-70
2023/11/13 01:16:45;;;;;;;18.67;14.00;;;6.30;99.90;;;;;;7400175;19;20389;-71
2023/11/13 01:19:15;;;;;;;18.98;14.32;;;6.30;99.90;;;;;;7400932;19;20003;-71
2023/11/13 01:21:45;;;;;;;20.35;14.88;;;6.40;99.90;;;;;;7400229;19;20010;-71
2023/11/13 01:24:15;;;;;;;17.00;12.85;;;6.40;99.90;;;;;;7399050;19;20053;-70
2023/11/13 01:26:49;;;;;;;16.88;13.02;;;6.40;99.90;;;;;;7398794;19;20031;-71
2023/11/13 01:29:19;;;;;;;15.07;11.95;;;6.40;99.90;;;;;;7400979;19;20014;-71
2023/11/13 01:31:49;;;;;;;15.60;12.15;;;6.40;99.90;;;;;;7400685;19;20020;-70
2023/11/13 01:34:20;;;;;;;17.20;12.38;;;6.40;99.90;;;;;;7399755;19;20011;-71
2023/11/13 01:36:50;;;;;;;16.02;12.52;;;6.40;99.90;;;;;;7399559;19;20451;-70
2023/11/13 01:39:20;;;;;;;14.50;10.93;;;6.40;99.90;;;;;;7398584;19;20356;-71
2023/11/13 01:41:52;;;;;;;15.45;11.50;;;6.40;99.90;;;;;;7398974;19;20007;-70
2023/11/13 01:44:22;;;;;;;15.80;12.20;;;6.40;99.90;;;;;;7396947;19;20093;-70
2023/11/13 01:46:53;;;;;;;16.13;12.02;;;6.40;99.90;;;;;;7398687;19;20022;-70
2023/11/13 01:49:23;;;;;;;14.70;11.35;;;6.40;99.90;;;;;;7399942;19;20018;-70
2023/11/13 01:51:55;;;;;;;16.63;11.52;;;6.50;99.90;;;;;;7400148;19;20019;-70
2023/11/13 01:54:25;;;;;;;16.95;13.07;;;6.50;99.90;;;;;;7398005;19;20047;-70
2023/11/13 01:56:59;;;;;;;18.23;12.98;;;6.50;99.90;;;;;;7399731;19;20018;-70
2023/11/13 01:59:29;;;;;;;16.63;12.65;;;6.50;99.90;;;;;;7398390;19;20077;-70
2023/11/13 02:02:01;;;;;;;20.30;14.55;;;6.50;99.90;;;;;;7399055;19;20078;-70
2023/11/13 02:04:31;;;;;;;17.75;14.05;;;6.60;99.90;;;;;;7397926;19;20043;-69
2023/11/13 02:07:01;;;;;;;19.65;14.27;;;6.60;99.90;;;;;;7396321;19;20030;-69
2023/11/13 02:09:32;;;;;;;18.85;14.05;;;6.70;99.90;;;;;;7399723;19;20013;-69
2023/11/13 02:12:06;;;;;;;18.60;13.93;;;6.70;99.90;;;;;;7397945;19;20069;-70
2023/11/13 02:14:36;;;;;;;19.50;15.40;;;6.70;99.90;;;;;;7396300;19;20085;-70
2023/11/13 02:17:07;;;;;;;22.40;15.60;;;6.60;99.90;;;;;;7395230;19;20050;-70
2023/11/13 02:19:37;;;;;;;19.75;15.00;;;6.70;99.90;;;;;;7398409;19;20006;-70
2023/11/13 02:22:07;;;;;;;19.02;14.82;;;6.70;99.90;;;;;;7398779;19;20018;-70
2023/11/13 02:24:40;;;;;;;20.30;14.38;;;6.70;99.90;;;;;;7397146;19;20337;-71
2023/11/13 02:27:10;;;;;;;20.30;15.05;;;6.70;99.90;;;;;;7396863;19;20022;-71
2023/11/13 02:29:40;;;;;;;18.90;14.10;;;6.80;99.90;;;;;;7397929;19;20014;-71
2023/11/13 02:32:10;;;;;;;18.85;14.27;;;6.80;99.90;;;;;;7398049;19;20027;-71
2023/11/13 02:34:40;;;;;;;18.88;14.75;;;6.80;99.90;;;;;;7395241;19;20014;-70
2023/11/13 02:37:12;;;;;;;19.88;14.10;;;6.90;99.90;;;;;;7398327;19;20018;-71
2023/11/13 02:39:45;;;;;;;17.65;13.63;;;6.90;99.90;;;;;;7396827;19;20021;-70
2023/11/13 02:42:15;;;;;;;23.63;16.23;;;7.00;99.90;;;;;;7396859;19;20031;-71
2023/11/13 02:44:47;;;;;;;22.40;14.57;;;7.00;99.90;;;;;;7395341;19;20017;-71
2023/11/13 02:47:18;;;;;;;19.98;15.15;;;7.00;99.90;;;;;;7396870;19;20011;-72
2023/11/13 02:49:48;;;;;;;23.77;15.98;;;7.00;99.90;;;;;;7397132;19;20010;-71
2023/11/13 02:52:18;;;;;;;18.52;13.93;;;7.00;99.90;;;;;;7396962;19;20025;-71
2023/11/13 02:54:52;;;;;;;21.42;15.25;;;7.00;99.90;;;;;;7394749;19;20467;-71
2023/11/13 02:57:22;;;;;;;19.08;13.70;;;7.10;99.90;;;;;;7397623;19;20010;-71
2023/11/13 02:59:52;;;;;;;20.20;14.55;;;7.10;99.90;;;;;;7396994;19;20007;-71
2023/11/13 03:02:22;;;;;;;19.33;14.48;;;7.10;99.90;;;;;;7397195;19;20019;-71
2023/11/13 03:04:53;;;;;;;20.48;14.32;;;7.20;99.90;;;;;;7394697;19;20415;-71
2023/11/13 03:07:22;;;;;;;18.73;13.50;;;7.30;99.90;;;;;;7396439;19;20078;-70
2023/11/13 03:09:55;;;;;;;22.40;15.30;;;7.30;99.90;;;;;;7397454;19;20006;-70
2023/11/13 03:12:26;;;;;;;18.80;13.98;;;7.30;99.90;;;;;;7394412;19;20045;-71
2023/11/13 03:14:56;;;;;;;22.17;16.25;;;7.30;99.90;;;;;;7393733;19;20027;-72
2023/11/13 03:17:26;;;;;;;23.45;15.82;;;7.20;99.90;;;;;;7395122;19;20458;-72
2023/11/13 03:19:56;;;;;;;25.50;16.70;;;7.20;99.90;;;;;;7397382;19;20010;-70
2023/11/13 03:22:26;;;;;;;24.73;17.13;;;7.20;99.90;;;;;;7395573;19;20069;-70
2023/11/13 03:24:59;;;;;;;24.83;17.25;;;7.20;99.90;;;;;;7394569;19;20042;-70
2023/11/13 03:27:29;;;;;;;30.00;19.10;;;7.30;99.90;;;;;;7393702;19;20017;-71
2023/11/13 03:29:59;;;;;;;26.42;18.38;;;7.30;99.90;;;;;;7396145;19;20024;-70
2023/11/13 03:32:30;;;;;;;27.15;19.27;;;7.30;99.90;;;;;;7397059;19;20015;-70
2023/11/13 03:35:01;;;;;;;31.55;19.25;;;7.30;99.90;;;;;;7389369;19;20368;-71
2023/11/13 03:37:31;;;;;;;31.95;19.70;;;7.40;99.90;;;;;;7394578;19;20091;-69
2023/11/13 03:40:06;;;;;;;32.45;20.08;;;7.40;99.90;;;;;;7394798;19;20010;-70
2023/11/13 03:42:37;;;;;;;26.42;18.40;;;7.40;99.90;;;;;;7395766;19;20014;-71
2023/11/13 03:45:08;;;;;;;25.92;18.25;;;7.40;99.90;;;;;;7391931;19;20023;-70
2023/11/13 03:47:39;;;;;;;26.45;17.95;;;7.40;99.90;;;;;;7395038;19;20014;-70
2023/11/13 03:50:11;;;;;;;25.80;17.50;;;7.40;99.90;;;;;;7393836;19;20011;-70
2023/11/13 03:52:41;;;;;;;31.92;18.60;;;7.40;99.90;;;;;;7396181;19;20018;-70
2023/11/13 03:55:13;;;;;;;25.75;17.85;;;7.40;99.90;;;;;;7393169;19;20018;-69
2023/11/13 03:57:43;;;;;;;21.77;16.23;;;7.50;99.90;;;;;;7395386;19;20451;-69
2023/11/13 04:00:16;;;;;;;21.95;16.52;;;7.50;99.90;;;;;;7392413;19;20081;-70
2023/11/13 04:02:49;;;;;;;20.40;14.95;;;7.50;99.90;;;;;;7392237;19;20107;-69
2023/11/13 04:05:19;;;;;;;21.50;14.07;;;7.60;99.90;;;;;;7392642;19;20022;-70
2023/11/13 04:07:49;;;;;;;20.95;15.10;;;7.60;99.90;;;;;;7394205;19;20018;-70
2023/11/13 04:10:22;;;;;;;21.17;13.75;;;7.70;99.90;;;;;;7393516;19;20093;-70
2023/11/13 04:12:52;;;;;;;17.40;13.38;;;7.80;99.90;;;;;;7392624;19;20086;-70
2023/11/13 04:15:23;;;;;;;16.67;12.07;;;7.80;99.90;;;;;;7388696;19;20031;-70
2023/11/13 04:17:53;;;;;;;17.98;11.85;;;7.80;99.90;;;;;;7391619;19;20014;-70
2023/11/13 04:20:23;;;;;;;16.95;11.43;;;7.80;99.90;;;;;;7393607;19;20037;-71
2023/11/13 04:22:55;;;;;;;16.67;11.38;;;7.80;99.90;;;;;;7394466;19;20015;-70
2023/11/13 04:25:28;;;;;;;15.57;10.93;;;7.90;99.90;;;;;;7391910;19;20026;-71
2023/11/13 04:27:58;;;;;;;15.98;11.18;;;7.90;99.90;;;;;;7393266;19;20014;-71
2023/11/13 04:30:28;;;;;;;17.00;11.02;;;8.00;99.90;;;;;;7391380;19;20021;-70
2023/11/13 04:32:58;;;;;;;12.85;8.18;;;8.00;99.90;;;;;;7391499;19;20089;-71
2023/11/13 04:35:28;;;;;;;11.15;8.05;;;8.20;99.90;;;;;;7390785;19;20017;-71
2023/11/13 04:37:58;;;;;;;11.38;6.22;;;8.20;99.90;;;;;;7393354;19;20082;-70
2023/11/13 04:40:31;;;;;;;8.48;5.63;;;8.30;99.90;;;;;;7397940;19;20082;-70
2023/11/13 04:43:01;;;;;;;6.97;4.70;;;8.40;99.90;;;;;;7399714;19;20011;-70
2023/11/13 04:45:36;;;;;;;;;;;8.50;99.90;;;;;;7398289;19;20010;-71
2023/11/13 04:48:06;;;;;;;7.95;4.38;;;8.50;99.90;;;;;;7400089;19;20255;-70
2023/11/13 04:50:36;;;;;;;7.85;3.85;;;8.60;99.90;;;;;;7399859;19;20019;-70
2023/11/13 04:53:06;;;;;;;8.55;3.08;;;8.70;99.90;;;;;;7400750;19;20614;-71
2023/11/13 04:55:39;;;;;;;5.15;2.85;;;8.70;99.90;;;;;;7397340;19;20359;-70
2023/11/13 04:58:09;;;;;;;5.82;3.13;;;8.90;99.90;;;;;;7400734;19;20011;-71
2023/11/13 05:00:39;;;;;;;5.80;2.58;;;8.80;99.90;;;;;;7397496;19;20014;-70
2023/11/13 05:03:09;;;;;;;8.52;2.60;;;8.90;99.90;;;;;;7399092;19;20026;-71
2023/11/13 05:05:39;;;;;;;8.63;2.42;;;8.80;99.90;;;;;;7395227;19;20088;-70
2023/11/13 05:08:09;;;;;;;10.35;3.85;;;9.00;99.90;;;;;;7399288;19;20078;-71
2023/11/13 05:10:42;;;;;;;11.32;3.33;;;9.10;99.90;;;;;;7399494;19;20018;-71
2023/11/13 05:13:14;;;;;;;9.20;3.05;;;9.10;99.90;;;;;;7400586;19;20097;-70
2023/11/13 05:15:44;;;;;;;10.57;3.40;;;9.10;99.90;;;;;;7396337;19;20077;-72
2023/11/13 05:18:14;;;;;;;9.88;3.13;;;9.10;99.90;;;;;;7400124;19;20026;-71
2023/11/13 05:20:46;;;;;;;10.23;3.28;;;9.10;99.90;;;;;;7399609;19;20356;-70
2023/11/13 05:23:16;;;;;;;13.80;3.63;;;9.10;99.90;;;;;;7399033;19;20748;-71
2023/11/13 05:25:49;;;;;;;15.93;4.00;;;9.20;99.90;;;;;;7394805;19;20506;-71
2023/11/13 05:28:19;;;;;;;15.20;3.58;;;9.10;99.90;;;;;;7398354;19;20594;-71
2023/11/13 05:30:49;;;;;;;15.65;3.85;;;9.20;99.90;;;;;;7399880;19;20093;-70
2023/11/13 05:33:20;;;;;;;19.88;4.22;;;9.20;99.90;;;;;;7399198;19;20016;-71
2023/11/13 05:35:50;;;;;;;13.90;4.35;;;9.30;99.90;;;;;;7396620;19;20036;-70
2023/11/13 05:38:19;;;;;;;13.18;4.50;;;9.30;99.90;;;;;;7397984;19;20025;-70
2023/11/13 05:40:52;;;;;;;13.98;3.47;;;9.40;99.90;;;;;;7398939;19;20007;-70
2023/11/13 05:43:22;;;;;;;12.63;3.83;;;9.50;99.90;;;;;;7399058;19;20481;-70
2023/11/13 05:45:52;;;;;;;22.10;5.45;;;9.50;99.90;;;;;;7396667;19;20011;-70
2023/11/13 05:48:22;;;;;;;16.35;3.67;;;9.60;99.90;;;;;;7398097;19;20136;-70
2023/11/13 05:50:56;;;;;;;12.25;3.97;;;9.70;99.90;;;;;;7398706;19;20014;-70
2023/11/13 05:53:26;;;;;;;17.13;3.90;;;9.60;99.90;;;;;;7397933;19;20050;-70
2023/11/13 05:55:58;;;;;;;22.55;4.40;;;9.70;99.90;;;;;;7397661;19;20588;-71
2023/11/13 05:58:28;;;;;;;16.08;3.63;;;9.80;99.90;;;;;;7397395;19;20018;-71
2023/11/13 06:00:59;;;;;;;13.88;3.97;;;9.60;99.90;;;;;;7394140;19;20601;-71
2023/11/13 06:03:29;;;;;;;15.82;3.75;;;9.60;99.90;;;;;;7397051;19;20043;-70
2023/11/13 06:05:59;;;;;;;17.48;4.18;;;9.60;99.90;;;;;;7395329;19;20043;-70
2023/11/13 06:08:29;;;;;;;16.85;4.22;;;9.60;99.90;;;;;;7396562;19;20039;-69
2023/11/13 06:11:02;;;;;;;15.95;4.03;;;9.50;99.90;;;;;;7397527;19;20015;-69
2023/11/13 06:13:32;;;;;;;17.02;4.45;;;9.50;99.90;;;;;;7397678;19;20019;-69
2023/11/13 06:16:02;;;;;;;16.60;4.10;;;9.50;99.90;;;;;;7397821;19;20352;-69
2023/11/13 06:18:34;;;;;;;12.30;4.20;;;9.40;99.90;;;;;;7396938;19;20018;-69
2023/11/13 06:21:04;;;;;;;18.45;4.43;;;9.50;99.90;;;;;;7397420;19;20024;-69
2023/11/13 06:23:34;;;;;;;20.63;4.40;;;9.40;99.90;;;;;;7395869;19;20019;-70
2023/11/13 06:26:07;;;;;;;15.65;4.03;;;9.40;99.90;;;;;;7397330;19;20498;-69
2023/11/13 06:28:38;;;;;;;19.98;4.70;;;9.40;99.90;;;;;;7397103;19;20086;-70
2023/11/13 06:31:09;;;;;;;14.57;4.53;;;9.40;99.90;;;;;;7397352;19;20093;-69
2023/11/13 06:33:40;;;;;;;16.25;4.45;;;9.40;99.90;;;;;;7396081;19;20007;-70
2023/11/13 06:36:11;;;;;;;11.60;4.40;;;9.40;99.90;;;;;;7395607;19;20048;-70
2023/11/13 06:38:41;;;;;;;14.30;4.50;;;9.40;99.90;;;;;;7396740;19;20027;-70
2023/11/13 06:41:14;;;;;;;19.40;5.22;;;9.40;99.90;;;;;;7396821;19;20453;-72
2023/11/13 06:43:45;;;;;;;16.70;4.57;;;9.40;99.90;;;;;;7393897;19;20014;-71
2023/11/13 06:46:16;;;;;;;15.02;4.45;;;9.40;99.90;;;;;;7397443;19;20122;-71
2023/11/13 06:48:48;;;;;;;17.05;4.85;;;9.40;99.90;;;;;;7395053;19;20537;-71
2023/11/13 06:51:20;;;;;;;19.45;4.82;;;9.50;99.90;;;;;;7394932;19;20027;-71
2023/11/13 06:53:52;;;;;;;16.10;4.68;;;9.50;99.90;;;;;;7393975;19;20030;-72
2023/11/13 06:56:25;;;;;;;18.27;5.20;;;9.50;99.90;;;;;;7395660;19;20023;-75
2023/11/13 06:58:59;;;;;;;21.17;5.53;;;9.50;99.90;;;;;;7395390;19;20027;-71
2023/11/13 07:01:30;;;;;;;19.90;5.17;;;9.50;99.90;;;;;;7395717;19;20474;-72
2023/11/13 07:04:04;;;;;;;16.75;5.22;;;9.50;99.90;;;;;;7392698;19;20011;-73
2023/11/13 07:06:35;;;;;;;19.58;5.47;;;9.50;99.90;;;;;;7394961;19;20041;-71
2023/11/13 07:09:10;;;;;;;18.17;6.15;;;9.50;99.90;;;;;;7394442;19;20022;-72
2023/11/13 07:11:47;;;;;;;25.65;7.13;;;9.60;99.90;;;;;;7394199;19;20013;-72
2023/11/13 07:14:19;;;;;;;14.20;5.72;;;9.60;99.90;;;;;;7392710;19;20014;-72
2023/11/13 07:16:50;;;;;;;26.45;7.00;;;9.60;99.90;;;;;;7393723;19;20017;-72
2023/11/13 07:19:21;;;;;;;23.08;6.35;;;9.50;99.90;;;;;;7394764;19;20031;-72
2023/11/13 07:21:52;;;;;;;16.95;7.30;;;9.50;99.90;;;;;;7394793;19;20082;-73
2023/11/13 07:24:23;;;;;;;19.90;6.57;;;9.60;99.90;;;;;;7390025;19;20015;-72
2023/11/13 07:26:58;;;;;;;20.40;7.43;;;9.60;99.90;;;;;;7396596;19;20010;-73
2023/11/13 07:29:30;;;;;;;27.17;7.93;;;9.60;99.90;;;;;;7393743;19;20018;-72
2023/11/13 07:32:01;;;;;;;24.40;8.35;;;9.60;99.90;;;;;;7394045;19;20510;-73
2023/11/13 07:34:32;;;;;;;20.90;7.63;;;9.60;99.90;;;;;;7391718;19;20374;-72
2023/11/13 07:37:03;;;;;;;20.30;8.57;;;9.60;99.90;;;;;;7393431;19;20018;-70
2023/11/13 07:39:33;;;;;;;22.65;8.20;;;9.60;99.90;;;;;;7395150;19;20047;-70
2023/11/13 07:42:06;;;;;;;22.27;8.73;;;9.60;99.90;;;;;;7395398;19;20025;-70
2023/11/13 07:44:36;;;;;;;25.15;11.20;;;9.60;99.90;;;;;;7393896;19;20074;-70
2023/11/13 07:47:06;;;;;;;36.10;13.77;;;9.60;99.90;;;;;;7393027;19;20066;-70
2023/11/13 07:49:36;;;;;;;28.17;13.63;;;9.60;99.90;;;;;;7394167;19;20035;-72
2023/11/13 07:52:09;;;;;;;26.27;11.88;;;9.60;99.90;;;;;;7394160;19;20129;-70
2023/11/13 07:54:40;;;;;;;21.50;9.07;;;9.60;99.90;;;;;;7392951;19;20013;-70
2023/11/13 07:57:12;;;;;;;19.73;8.30;;;9.70;99.90;;;;;;7395119;19;20014;-70
2023/11/13 07:59:43;;;;;;;25.55;8.35;;;9.70;99.90;;;;;;7395519;19;20071;-70
2023/11/13 08:02:14;;;;;;;24.58;8.82;;;9.70;99.90;;;;;;7394594;19;20018;-70
2023/11/13 08:04:44;;;;;;;25.38;8.98;;;9.70;99.90;;;;;;7391353;19;20475;-70
2023/11/13 08:07:16;;;;;;;23.70;8.80;;;9.70;99.90;;;;;;7394654;19;20385;-70
2023/11/13 08:09:54;;;;;;;25.88;8.27;;;9.70;99.90;;;;;;7395376;19;20007;-69
2023/11/13 08:12:28;;;;;;;24.23;7.70;;;9.70;99.90;;;;;;7395291;19;20018;-70
2023/11/13 08:14:59;;;;;;;24.23;8.98;;;9.70;99.90;;;;;;7394982;19;20034;-70
2023/11/13 08:17:31;;;;;;;28.52;8.90;;;9.70;99.90;;;;;;7402147;19;20451;-71
2023/11/13 08:20:02;;;;;;;23.58;7.72;;;9.70;99.90;;;;;;7401320;19;20027;-70
2023/11/13 08:22:35;;;;;;;28.67;8.15;;;9.70;99.90;;;;;;7401973;19;20062;-70
2023/11/13 08:25:05;;;;;;;24.67;8.27;;;9.70;99.90;;;;;;7398724;19;20477;-72
2023/11/13 08:27:41;;;;;;;27.85;9.45;;;9.70;99.90;;;;;;7398087;19;20089;-70
2023/11/13 08:30:13;;;;;;;28.13;9.73;;;9.70;99.90;;;;;;7398461;19;20020;-71
2023/11/13 08:32:44;;;;;;;28.63;9.85;;;9.70;99.90;;;;;;7399041;19;20022;-71
2023/11/13 08:35:15;;;;;;;20.88;7.75;;;9.70;99.90;;;;;;7396089;19;20025;-70
2023/11/13 08:37:46;;;;;;;21.73;8.55;;;9.70;99.90;;;;;;7397094;19;20456;-70
2023/11/13 08:40:17;;;;;;;20.67;6.82;;;9.70;99.90;;;;;;7398280;19;20031;-72
2023/11/13 08:42:50;;;;;;;21.77;7.57;;;9.70;99.90;;;;;;7398621;19;20034;-70
2023/11/13 08:45:21;;;;;;;26.33;7.43;;;9.70;99.90;;;;;;7395974;19;20295;-71
2023/11/13 08:47:52;;;;;;;23.65;7.35;;;9.70;99.90;;;;;;7396591;19;20078;-70
2023/11/13 08:50:24;;;;;;;21.27;8.05;;;9.80;99.90;;;;;;7397964;19;20081;-69
2023/11/13 08:52:57;;;;;;;22.23;7.80;;;9.80;99.90;;;;;;7397961;19;20014;-70
2023/11/13 08:55:27;;;;;;;21.52;7.63;;;9.80;99.90;;;;;;7395888;19;20053;-69
2023/11/13 08:58:00;;;;;;;26.13;8.52;;;9.80;99.90;;;;;;7398537;19;20039;-69
2023/11/13 09:00:40;;;;;;;22.80;8.10;;;9.80;99.90;;;;;;7398507;19;20018;-70
2023/11/13 09:03:11;;;;;;;26.20;9.43;;;9.80;99.90;;;;;;7397314;19;20426;-70
2023/11/13 09:05:41;;;;;;;24.45;8.75;;;9.80;99.90;;;;;;7394184;19;20014;-70
2023/11/13 09:08:12;;;;;;;47.05;21.33;;;9.80;99.90;;;;;;7398270;19;20074;-70
2023/11/13 09:10:44;;;;;;;22.95;8.73;;;9.80;99.90;;;;;;7396132;19;20141;-71
2023/11/13 09:13:17;;;;;;;21.83;8.32;;;9.80;99.90;;;;;;7397905;19;20474;-70
2023/11/13 09:15:49;;;;;;;20.70;8.35;;;9.90;99.90;;;;;;7394854;19;20365;-70
2023/11/13 09:18:22;;;;;;;22.33;8.43;;;9.90;99.90;;;;;;7397573;19;20010;-70
2023/11/13 09:20:54;;;;;;;22.80;8.30;;;9.80;99.90;;;;;;7398008;19;20019;-70
2023/11/13 09:23:26;;;;;;;20.25;8.65;;;9.90;99.90;;;;;;7397327;19;20798;-70
2023/11/13 09:25:56;;;;;;;21.85;8.02;;;9.90;99.90;;;;;;7256806;19;2702253;-70
2023/11/13 09:28:29;;;;;;;20.90;8.25;;;9.80;99.90;;;;;;7399863;19;20027;-70
2023/11/13 09:30:59;;;;;;;18.13;7.80;;;9.90;99.90;;;;;;7397401;19;20061;-70
2023/11/13 09:33:30;;;;;;;19.70;8.50;;;9.90;99.90;;;;;;7399496;19;20027;-70
2023/11/13 09:36:00;;;;;;;15.80;7.15;;;9.90;99.90;;;;;;7399259;19;20082;-70
2023/11/13 09:38:31;;;;;;;16.67;7.60;;;10.00;99.90;;;;;;7399228;19;20378;-70
2023/11/13 09:41:03;;;;;;;17.02;7.63;;;10.00;99.90;;;;;;7399413;19;20742;-71
2023/11/13 09:43:39;;;;;;;17.50;6.07;;;10.00;99.90;;;;;;7399263;19;20018;-70
2023/11/13 09:46:14;;;;;;;13.50;5.97;;;10.10;99.90;;;;;;7398305;19;20010;-71
2023/11/13 09:48:52;;;;;;;13.25;6.15;;;10.10;99.90;;;;;;7398965;19;20018;-71
2023/11/13 09:51:24;;;;;;;15.93;5.55;;;10.20;99.90;;;;;;7398077;19;20018;-70
2023/11/13 09:54:00;;;;;;;10.77;6.10;;;10.20;99.90;;;;;;7397306;19;20469;-71
2023/11/13 09:56:32;;;;;;;11.85;6.25;;;10.20;99.90;;;;;;7399303;19;20356;-70
2023/11/13 09:59:08;;;;;;;12.75;6.10;;;10.20;99.90;;;;;;7397726;19;20014;-70
2023/11/13 10:01:39;;;;;;;11.85;6.07;;;10.30;99.90;;;;;;7397021;19;20471;-71
2023/11/13 10:04:10;;;;;;;13.35;6.40;;;10.30;99.90;;;;;;7395475;19;20014;-71
2023/11/13 10:06:43;;;;;;;15.30;6.40;;;10.30;99.90;;;;;;7395763;19;20039;-70
2023/11/13 10:09:13;;;;;;;12.27;5.82;;;10.30;99.90;;;;;;7398260;19;20014;-70
2023/11/13 10:11:43;;;;;;;16.20;6.30;;;10.30;99.90;;;;;;7395990;19;20014;-70
2023/11/13 10:14:19;;;;;;;13.07;5.25;;;10.30;99.90;;;;;;7396539;19;20021;-71
2023/11/13 10:16:56;;;;;;;11.20;4.68;;;10.40;99.90;;;;;;7398217;19;20359;-71
2023/11/13 10:19:26;;;;;;;10.85;4.78;;;10.40;99.90;;;;;;7399170;19;20136;-71
2023/11/13 10:21:57;;;;;;;8.02;4.22;;;10.50;99.90;;;;;;7397762;19;20022;-71
2023/11/13 10:24:28;;;;;;;26.98;15.43;;;10.60;99.90;;;;;;7396794;19;20032;-72
2023/11/13 10:27:13;;;;;;;;;;;10.60;99.90;;;;;;7398553;19;20022;-70
2023/11/13 10:29:46;;;;;;;12.10;4.45;;;10.60;99.90;;;;;;7398149;19;19921;-72
2023/11/13 10:32:16;;;;;;;13.57;4.28;;;10.70;99.90;;;;;;7396784;19;20006;-72
2023/11/13 10:34:49;;;;;;;11.95;4.38;;;10.70;99.90;;;;;;7395149;19;20471;-70
2023/11/13 10:37:20;;;;;;;8.18;3.90;;;10.70;99.90;;;;;;7395608;19;20014;-71
2023/11/13 10:39:51;;;;;;;8.75;3.63;;;10.70;99.90;;;;;;7398012;19;20019;-71
2023/11/13 10:42:25;;;;;;;13.35;5.28;;;10.80;99.90;;;;;;7397123;19;20010;-70
2023/11/13 10:44:59;;;;;;;10.02;4.32;;;10.80;99.90;;;;;;7395647;19;20024;-70
2023/11/13 10:47:35;;;;;;;10.13;3.28;;;10.90;99.90;;;;;;7398083;19;20082;-70
2023/11/13 10:50:15;;;;;;;6.10;2.95;;;11.00;99.90;;;;;;7398013;19;20027;-71
2023/11/13 10:52:50;;;;;;;8.73;3.28;;;11.20;99.90;;;;;;7395584;19;20015;-70
2023/11/13 10:55:21;;;;;;;6.50;2.75;;;11.40;99.90;;;;;;7393385;19;20015;-71
2023/11/13 10:57:52;;;;;;;8.88;3.17;;;11.50;99.90;;;;;;7397377;19;20003;-70
2023/11/13 11:00:29;;;;;;;5.95;2.60;;;11.60;99.90;;;;;;7395515;19;20022;-71
2023/11/13 11:03:05;;;;;;;10.73;2.92;;;11.70;99.90;;;;;;7396470;19;20060;-70
2023/11/13 11:05:39;;;;;;;6.55;2.45;;;11.80;99.90;;;;;;7393923;19;20010;-71
2023/11/13 11:08:09;;;;;;;9.00;5.50;;;11.80;99.90;;;;;;7397001;19;20097;-71
2023/11/13 11:10:39;;;;;;;3.90;1.98;;;11.90;99.90;;;;;;7394743;19;20022;-71
2023/11/13 11:13:14;;;;;;;7.63;2.28;;;12.00;99.90;;;;;;7393767;19;20081;-70
2023/11/13 11:16:19;;;;;;;6.25;2.70;;;12.00;99.90;;;;;;7393544;19;20090;-70
2023/11/13 11:18:57;;;;;;;5.88;2.22;;;12.00;99.90;;;;;;7395505;19;20315;-71
2023/11/13 11:21:44;;;;;;;6.13;2.20;;;12.00;99.90;;;;;;7396772;19;20034;-70
2023/11/13 11:24:30;;;;;;;5.63;2.70;;;12.00;99.90;;;;;;7394513;19;20018;-70
2023/11/13 11:27:01;;;;;;;4.72;2.30;;;12.10;99.90;;;;;;7396342;19;20074;-70
2023/11/13 11:29:36;;;;;;;6.90;2.70;;;12.20;99.90;;;;;;7396166;19;20010;-69
2023/11/13 11:32:24;;;;;;;10.00;2.60;;;12.20;99.90;;;;;;7394304;19;20014;-70
2023/11/13 11:35:02;;;;;;;10.65;2.80;;;12.20;99.90;;;;;;7393738;19;20014;-70
2023/11/13 11:37:33;;;;;;;7.55;2.50;;;12.20;99.90;;;;;;7396021;19;20006;-71
2023/11/13 11:40:08;;;;;;;4.85;2.05;;;12.20;99.90;;;;;;7393955;19;20014;-71
2023/11/13 11:42:38;;;;;;;6.30;2.38;;;12.20;99.90;;;;;;7395424;19;20010;-71
2023/11/13 11:45:09;;;;;;;4.65;2.55;;;12.30;99.90;;;;;;7393312;19;20023;-72
2023/11/13 11:47:42;;;;;;;6.90;2.40;;;12.30;99.90;;;;;;7394708;19;20527;-70
2023/11/13 11:50:15;;;;;;;4.55;2.20;;;12.30;99.90;;;;;;7395198;19;20014;-71
2023/11/13 11:52:51;;;;;;;2.55;1.70;;;12.30;99.90;;;;;;7394621;19;20366;-71
2023/11/13 11:55:22;;;;;;;4.15;2.15;;;12.30;99.90;;;;;;7392399;19;20010;-71
2023/11/13 11:57:53;;;;;;;5.90;2.78;;;12.40;99.90;;;;;;7394972;19;20036;-71
2023/11/13 12:00:25;;;;;;;8.57;2.70;;;12.50;99.90;;;;;;7395428;19;20014;-70
2023/11/13 12:02:58;;;;;;;5.43;2.30;;;12.50;99.90;;;;;;7395662;19;20022;-72
2023/11/13 12:05:28;;;;;;;3.90;2.00;;;12.50;99.90;;;;;;7392985;19;20033;-71
2023/11/13 12:07:58;;;;;;;5.25;2.30;;;12.50;99.90;;;;;;7394137;19;20340;-70
2023/11/13 12:10:28;;;;;;;3.40;2.00;;;12.50;99.90;;;;;;7394898;19;20007;-71
2023/11/13 12:12:58;;;;;;;5.22;2.13;;;12.50;99.90;;;;;;7393062;19;20011;-71
2023/11/13 12:15:28;;;;;;;5.13;2.05;;;12.60;99.90;;;;;;7392704;19;20014;-71
2023/11/13 12:18:01;;;;;;;4.57;2.20;;;12.60;99.90;;;;;;7395118;19;20434;-70
2023/11/13 12:20:31;;;;;;;4.25;2.22;;;12.60;99.90;;;;;;7395269;19;20043;-71
2023/11/13 12:23:01;;;;;;;6.03;2.13;;;12.60;99.90;;;;;;7394690;19;20014;-71
2023/11/13 12:25:32;;;;;;;8.00;1.90;;;12.70;99.90;;;;;;7392664;19;20027;-70
2023/11/13 12:28:02;;;;;;;4.50;1.90;;;12.80;99.90;;;;;;7394721;19;20018;-71
2023/11/13 12:30:33;;;;;;;4.85;1.95;;;12.80;99.90;;;;;;7393920;19;20039;-71
2023/11/13 12:33:06;;;;;;;4.60;2.13;;;12.80;99.90;;;;;;7394122;19;20014;-71
2023/11/13 12:35:37;;;;;;;4.97;2.08;;;12.90;99.90;;;;;;7389809;19;20015;-70
2023/11/13 12:38:07;;;;;;;4.70;2.22;;;13.00;99.90;;;;;;7392515;19;20015;-70
2023/11/13 12:40:37;;;;;;;6.55;2.83;;;13.00;99.90;;;;;;7393794;19;20059;-70
2023/11/13 12:43:07;;;;;;;7.25;2.53;;;13.00;99.90;;;;;;7393573;19;20389;-70
2023/11/13 12:45:37;;;;;;;5.85;2.33;;;12.90;99.90;;;;;;7391024;19;20049;-70
2023/11/13 12:48:10;;;;;;;5.78;2.28;;;13.00;99.90;;;;;;7392704;19;20014;-70
2023/11/13 12:50:43;;;;;;;4.03;1.60;;;13.00;99.90;;;;;;7392836;19;20018;-71
2023/11/13 12:53:15;;;;;;;3.90;1.90;;;13.10;99.90;;;;;;7390436;19;20037;-70
2023/11/13 12:55:49;;;;;;;5.03;2.30;;;13.00;99.90;;;;;;7390104;19;20546;-70
2023/11/13 12:58:22;;;;;;;4.93;2.22;;;13.10;99.90;;;;;;7392831;19;20499;-71
2023/11/13 13:00:53;;;;;;;5.55;2.00;;;13.10;99.90;;;;;;7395583;19;20018;-72
2023/11/13 13:03:26;;;;;;;3.85;1.70;;;13.10;99.90;;;;;;7400583;19;20082;-72
2023/11/13 13:05:57;;;;;;;5.10;1.55;;;13.10;99.90;;;;;;7397985;19;20019;-69